createdAt,value
2022-10-17T00:00:13.306Z,101736.75
2022-10-17T00:02:41.209Z,101747.59
2022-10-17T00:05:09.589Z,101752.66
2022-10-17T00:07:38.921Z,101753.31
2022-10-17T00:10:07.634Z,101746.88
2022-10-17T00:12:36.396Z,101755.81
2022-10-17T00:15:05.909Z,101754.28
2022-10-17T00:17:33.902Z,101752.84
2022-10-17T00:20:02.133Z,101759.03
2022-10-17T00:22:30.129Z,101764.25
2022-10-17T00:24:59.404Z,101769.88
2022-10-17T00:27:27.492Z,101763.34
2022-10-17T00:29:55.642Z,101766.88
2022-10-17T00:32:23.594Z,101745.34
2022-10-17T00:34:51.526Z,101740.16
2022-10-17T00:37:19.397Z,101738.34
2022-10-17T00:39:47.271Z,101755.31
2022-10-17T00:42:16.694Z,101758.69
2022-10-17T00:45:19.780Z,101769.91
2022-10-17T00:47:50.147Z,101778.41
2022-10-17T00:50:18.087Z,101784.56
2022-10-17T00:52:47.854Z,101781.19
2022-10-17T00:55:18.964Z,101796.19
2022-10-17T00:57:48.505Z,101805.97
2022-10-17T01:00:17.892Z,101808.44
2022-10-17T01:02:45.981Z,101804.84
2022-10-17T01:05:14.512Z,101797.75
2022-10-17T01:07:42.890Z,101792.50
2022-10-17T01:10:11.724Z,101786.53
2022-10-17T01:12:49.862Z,101785.88
2022-10-17T01:15:27.173Z,101782.84
2022-10-17T01:18:09.987Z,101782.38
2022-10-17T01:21:12.136Z,101777.59
2022-10-17T01:23:55.814Z,101765.00
2022-10-17T01:26:28.425Z,101743.19
2022-10-17T01:29:20.400Z,101749.81
2022-10-17T01:31:55.862Z,101749.81
2022-10-17T01:34:29.023Z,101748.97
2022-10-17T01:37:03.861Z,101751.41
2022-10-17T01:39:43.949Z,101755.50
2022-10-17T01:42:16.391Z,101765.84
2022-10-17T01:44:49.662Z,101750.75
2022-10-17T01:47:21.852Z,101750.41
2022-10-17T01:49:52.866Z,101741.34
2022-10-17T01:52:23.585Z,101744.97
2022-10-17T01:54:54.829Z,101739.84
2022-10-17T01:57:27.343Z,101732.66
2022-10-17T01:59:56.710Z,101721.44
2022-10-17T02:02:26.702Z,101713.41
2022-10-17T02:04:56.561Z,101709.09
2022-10-17T02:07:24.577Z,101708.88
2022-10-17T02:09:52.610Z,101699.34
2022-10-17T02:12:39.226Z,101700.34
2022-10-17T02:15:16.649Z,101700.97
2022-10-17T02:17:52.067Z,101693.28
2022-10-17T02:20:25.561Z,101685.50
2022-10-17T02:22:57.476Z,101685.41
2022-10-17T02:25:32.449Z,101686.88
2022-10-17T02:28:06.370Z,101678.84
2022-10-17T02:30:38.317Z,101675.22
2022-10-17T02:33:11.289Z,101678.00
2022-10-17T02:35:42.234Z,101670.16
2022-10-17T02:38:11.740Z,101674.34
2022-10-17T02:40:41.135Z,101681.53
2022-10-17T02:43:09.162Z,101676.38
2022-10-17T02:45:38.065Z,101663.09
2022-10-17T02:48:09.744Z,101660.38
2022-10-17T02:50:46.241Z,101660.13
2022-10-17T02:53:16.860Z,101660.78
2022-10-17T02:55:50.998Z,101665.44
2022-10-17T02:58:21.877Z,101664.19
2022-10-17T03:00:50.310Z,101665.44
2022-10-17T03:03:25.818Z,101666.31
2022-10-17T03:05:54.448Z,101671.50
2022-10-17T03:08:22.798Z,101665.31
2022-10-17T03:10:50.726Z,101663.50
2022-10-17T03:13:18.698Z,101663.22
2022-10-17T03:15:46.775Z,101650.13
2022-10-17T03:18:15.286Z,101642.25
2022-10-17T03:20:44.588Z,101643.09
2022-10-17T03:23:12.454Z,101640.03
2022-10-17T03:25:40.356Z,101642.34
2022-10-17T03:28:08.439Z,101634.69
2022-10-17T03:30:36.338Z,101640.28
2022-10-17T03:33:04.272Z,101648.41
2022-10-17T03:35:32.335Z,101632.84
2022-10-17T03:38:01.585Z,101641.84
2022-10-17T03:40:29.494Z,101635.31
2022-10-17T03:42:57.366Z,101645.78
2022-10-17T03:45:25.277Z,101646.78
2022-10-17T03:47:53.340Z,101646.78
2022-10-17T03:50:21.271Z,101643.72
2022-10-17T03:52:49.410Z,101636.16
2022-10-17T03:55:18.790Z,101636.78
2022-10-17T03:57:46.686Z,101642.78
2022-10-17T04:00:15.233Z,101642.44
2022-10-17T04:02:45.010Z,101637.75
2022-10-17T04:05:12.909Z,101639.50
2022-10-17T04:07:40.813Z,101638.31
2022-10-17T04:10:09.735Z,101629.06
2022-10-17T04:12:39.032Z,101632.25
2022-10-17T04:15:08.197Z,101623.25
2022-10-17T04:17:38.112Z,101631.75
2022-10-17T04:20:06.961Z,101626.28
2022-10-17T04:22:34.890Z,101625.06
2022-10-17T04:25:02.776Z,101626.09
2022-10-17T04:27:30.688Z,101618.94
2022-10-17T04:29:59.975Z,101623.84
2022-10-17T04:32:28.123Z,101623.78
2022-10-17T04:34:56.249Z,101617.03
2022-10-17T04:37:24.123Z,101615.06
2022-10-17T04:39:52.011Z,101614.19
2022-10-17T04:42:19.876Z,101619.38
2022-10-17T04:44:47.810Z,101621.03
2022-10-17T04:47:17.105Z,101622.41
2022-10-17T04:49:44.983Z,101620.47
2022-10-17T04:52:12.889Z,101612.91
2022-10-17T04:54:40.843Z,101610.19
2022-10-17T04:57:08.709Z,101600.34
2022-10-17T04:59:36.646Z,101608.19
2022-10-17T05:02:04.595Z,101602.72
2022-10-17T05:04:33.858Z,101606.47
2022-10-17T05:07:01.928Z,101606.69
2022-10-17T05:09:29.861Z,101613.22
2022-10-17T05:11:57.760Z,101610.75
2022-10-17T05:14:25.713Z,101610.56
2022-10-17T05:16:53.572Z,101612.97
2022-10-17T05:19:21.479Z,101613.63
2022-10-17T05:21:50.750Z,101610.69
2022-10-17T05:24:18.885Z,101604.03
2022-10-17T05:26:46.852Z,101610.06
2022-10-17T05:29:14.714Z,101606.94
2022-10-17T05:31:42.716Z,101608.56
2022-10-17T05:34:13.123Z,101605.28
2022-10-17T05:36:41.874Z,101605.38
2022-10-17T05:39:13.543Z,101602.78
2022-10-17T05:41:41.442Z,101606.47
2022-10-17T05:44:09.326Z,101596.28
2022-10-17T05:46:37.203Z,101606.25
2022-10-17T05:49:14.762Z,101595.53
2022-10-17T05:51:53.066Z,101606.25
2022-10-17T05:54:22.367Z,101594.72
2022-10-17T05:56:52.937Z,101598.75
2022-10-17T05:59:20.839Z,101601.19
2022-10-17T06:01:48.940Z,101592.47
2022-10-17T06:04:16.958Z,101605.63
2022-10-17T06:06:44.998Z,101597.09
2022-10-17T06:09:13.121Z,101596.63
2022-10-17T06:11:42.385Z,101585.31
2022-10-17T06:14:10.282Z,101584.47
2022-10-17T06:16:38.465Z,101587.97
2022-10-17T06:19:06.414Z,101586.13
2022-10-17T06:21:36.696Z,101581.97
2022-10-17T06:24:04.849Z,101570.09
2022-10-17T06:26:32.790Z,101574.88
2022-10-17T06:29:02.095Z,101572.88
2022-10-17T06:31:30.214Z,101571.00
2022-10-17T06:33:58.102Z,101565.22
2022-10-17T06:36:26.041Z,101555.44
2022-10-17T06:38:53.934Z,101561.25
2022-10-17T06:41:21.806Z,101553.25
2022-10-17T06:43:49.745Z,101558.16
2022-10-17T06:46:20.368Z,101558.28
2022-10-17T06:48:48.245Z,101553.88
2022-10-17T06:51:16.159Z,101558.09
2022-10-17T06:53:44.071Z,101560.53
2022-10-17T06:56:12.299Z,101561.47
2022-10-17T06:58:41.080Z,101559.06
2022-10-17T07:01:10.642Z,101564.75
2022-10-17T07:03:40.965Z,101566.81
2022-10-17T07:06:10.843Z,101580.38
2022-10-17T07:08:38.957Z,101588.53
2022-10-17T07:11:10.914Z,101606.88
2022-10-17T07:13:39.411Z,101603.34
2022-10-17T07:16:08.024Z,101613.31
2022-10-17T07:18:36.227Z,101589.28
2022-10-17T07:21:05.898Z,101595.66
2022-10-17T07:23:36.601Z,101592.72
2022-10-17T07:26:07.181Z,101602.81
2022-10-17T07:28:35.278Z,101614.09
2022-10-17T07:31:07.216Z,101631.09
2022-10-17T07:33:35.402Z,101612.75
2022-10-17T07:36:05.688Z,101612.44
2022-10-17T07:38:34.226Z,101616.94
2022-10-17T07:41:03.328Z,101630.88
2022-10-17T07:43:31.802Z,101627.44
2022-10-17T07:45:59.718Z,101627.47
2022-10-17T07:48:27.590Z,101618.75
2022-10-17T07:50:55.506Z,101611.69
2022-10-17T07:53:25.031Z,101617.00
2022-10-17T07:55:52.902Z,101612.13
2022-10-17T07:58:20.765Z,101610.66
2022-10-17T08:00:51.101Z,101621.25
2022-10-17T08:03:19.094Z,101617.25
2022-10-17T08:05:47.001Z,101622.50
2022-10-17T08:08:15.057Z,101612.16
2022-10-17T08:10:44.800Z,101610.00
2022-10-17T08:13:12.685Z,101609.81
2022-10-17T08:15:40.603Z,101609.78
2022-10-17T08:18:08.501Z,101618.72
2022-10-17T08:20:36.806Z,101608.47
2022-10-17T08:23:04.757Z,101605.75
2022-10-17T08:25:33.429Z,101595.97
2022-10-17T08:28:02.817Z,101597.94
2022-10-17T08:30:31.251Z,101591.88
2022-10-17T08:32:59.174Z,101590.19
2022-10-17T08:35:27.073Z,101583.09
2022-10-17T08:37:54.981Z,101590.13
2022-10-17T08:40:26.763Z,101598.16
2022-10-17T08:43:17.362Z,101605.66
2022-10-17T08:45:48.174Z,101612.00
2022-10-17T08:48:19.682Z,101602.00
2022-10-17T08:50:50.098Z,101607.75
2022-10-17T08:53:21.223Z,101603.97
2022-10-17T08:55:50.288Z,101603.81
2022-10-17T08:58:22.476Z,101603.25
2022-10-17T09:00:57.281Z,101601.06
2022-10-17T09:03:39.904Z,101601.22
2022-10-17T09:06:15.438Z,101592.69
2022-10-17T09:08:48.698Z,101604.81
2022-10-17T09:11:27.206Z,101602.06
2022-10-17T09:14:03.238Z,101609.44
2022-10-17T09:16:41.310Z,101601.53
2022-10-17T09:19:13.122Z,101609.13
2022-10-17T09:21:44.507Z,101612.94
2022-10-17T09:24:17.618Z,101619.59
2022-10-17T09:26:46.714Z,101615.47
2022-10-17T09:29:21.543Z,101621.81
2022-10-17T09:31:54.836Z,101609.53
2022-10-17T09:34:26.740Z,101610.97
2022-10-17T09:36:55.542Z,101612.84
2022-10-17T09:39:26.174Z,101618.41
2022-10-17T09:41:55.931Z,101622.34
2022-10-17T09:44:26.741Z,101624.06
2022-10-17T09:47:06.426Z,101621.63
2022-10-17T09:49:36.424Z,101623.53
2022-10-17T09:52:06.322Z,101625.09
2022-10-17T09:54:43.776Z,101622.53
2022-10-17T09:57:12.614Z,101615.44
2022-10-17T09:59:44.234Z,101623.53
2022-10-17T10:02:23.315Z,101630.06
2022-10-17T10:05:04.610Z,101628.03
2022-10-17T10:07:35.750Z,101640.72
2022-10-17T10:10:05.199Z,101636.44
2022-10-17T10:12:35.610Z,101639.03
2022-10-17T10:15:32.283Z,101650.16
2022-10-17T10:18:00.205Z,101649.84
2022-10-17T10:20:32.118Z,101650.34
2022-10-17T10:23:16.042Z,101657.06
2022-10-17T10:25:53.758Z,101654.63
2022-10-17T10:28:23.790Z,101645.75
2022-10-17T10:30:53.769Z,101645.06
2022-10-17T10:33:22.377Z,101654.47
2022-10-17T10:35:58.689Z,101656.69
2022-10-17T10:38:26.828Z,101656.22
2022-10-17T10:40:56.709Z,101660.50
2022-10-17T10:43:35.898Z,101666.69
2022-10-17T10:46:07.057Z,101672.91
2022-10-17T10:48:36.972Z,101674.44
2022-10-17T10:51:07.494Z,101667.50
2022-10-17T10:53:43.273Z,101673.00
2022-10-17T10:56:15.777Z,101666.66
2022-10-17T10:58:52.800Z,101662.00
2022-10-17T11:01:27.660Z,101672.50
2022-10-17T11:04:09.111Z,101673.50
2022-10-17T11:06:38.652Z,101675.53
2022-10-17T11:09:18.546Z,101682.59
2022-10-17T11:11:50.100Z,101679.00
2022-10-17T11:14:22.584Z,101673.69
2022-10-17T11:16:57.548Z,101684.53
2022-10-17T11:19:27.151Z,101680.25
2022-10-17T11:22:06.818Z,101675.59
2022-10-17T11:24:39.470Z,101681.94
2022-10-17T11:27:09.009Z,101671.97
2022-10-17T11:29:40.067Z,101678.69
2022-10-17T11:32:14.079Z,101687.41
2022-10-17T11:34:44.478Z,101682.63
2022-10-17T11:37:17.517Z,101683.44
2022-10-17T11:39:49.457Z,101678.69
2022-10-17T11:42:21.105Z,101686.19
2022-10-17T11:44:50.231Z,101676.22
2022-10-17T11:47:28.323Z,101687.53
2022-10-17T11:51:59.647Z,101701.81
2022-10-17T11:52:56.425Z,101702.94
2022-10-17T11:55:26.062Z,101708.31
2022-10-17T11:58:09.867Z,101737.13
2022-10-17T12:00:48.921Z,101755.28
2022-10-17T12:03:27.824Z,101730.06
2022-10-17T12:05:59.157Z,101712.03
2022-10-17T12:08:31.690Z,101704.72
2022-10-17T12:11:02.308Z,101727.97
2022-10-17T12:13:54.504Z,101725.59
2022-10-17T12:16:45.494Z,101722.47
2022-10-17T12:19:23.287Z,101710.97
2022-10-17T12:21:59.413Z,101707.50
2022-10-17T12:24:42.017Z,101705.13
2022-10-17T12:27:42.449Z,101704.25
2022-10-17T12:30:22.553Z,101703.28
2022-10-17T12:33:07.388Z,101700.53
2022-10-17T12:35:38.786Z,101698.84
2022-10-17T12:38:25.989Z,101715.91
2022-10-17T12:40:59.184Z,101714.34
2022-10-17T12:46:46.451Z,101737.53
2022-10-17T12:49:36.892Z,101734.72
2022-10-17T12:52:46.125Z,101735.53
2022-10-17T12:55:17.465Z,101781.16
2022-10-17T12:57:52.549Z,101830.66
2022-10-17T13:00:24.258Z,101793.66
2022-10-17T13:02:55.947Z,101748.09
2022-10-17T13:05:28.589Z,101743.59
2022-10-17T13:07:57.141Z,101732.44
2022-10-17T13:10:29.180Z,101721.22
2022-10-17T13:13:04.481Z,101714.38
2022-10-17T13:15:32.558Z,101722.56
2022-10-17T13:18:02.157Z,101694.00
2022-10-17T13:20:31.877Z,101702.06
2022-10-17T13:23:00.850Z,101698.31
2022-10-17T13:25:30.263Z,101712.16
2022-10-17T13:28:13.678Z,101720.53
2022-10-17T13:30:49.467Z,101721.53
2022-10-17T13:33:29.146Z,101721.41
2022-10-17T13:36:01.004Z,101736.25
2022-10-17T13:38:32.254Z,101746.16
2022-10-17T13:41:30.014Z,101753.69
2022-10-17T13:43:51.058Z,101738.44
2022-10-17T13:46:37.466Z,101736.56
2022-10-17T13:49:18.075Z,101741.72
2022-10-17T13:51:47.066Z,101734.53
2022-10-17T13:54:33.397Z,101733.66
2022-10-17T13:57:04.683Z,101736.25
2022-10-17T13:59:38.562Z,101739.69
2022-10-17T14:02:12.646Z,101734.22
2022-10-17T14:05:11.852Z,101736.66
2022-10-17T14:07:41.740Z,101722.97
2022-10-17T14:10:21.722Z,101725.00
2022-10-17T14:12:51.415Z,101731.66
2022-10-17T14:15:20.009Z,101724.84
2022-10-17T14:17:48.004Z,101734.91
2022-10-17T14:21:01.593Z,101749.94
2022-10-17T14:23:31.694Z,101747.88
2022-10-17T14:26:12.008Z,101768.03
2022-10-17T14:28:42.586Z,101771.97
2022-10-17T14:31:15.206Z,101775.25
2022-10-17T14:33:49.771Z,101777.47
2022-10-17T14:36:19.600Z,101778.44
2022-10-17T14:38:48.643Z,101783.19
2022-10-17T14:44:18.471Z,101795.63
2022-10-17T14:46:50.522Z,101813.81
2022-10-17T14:49:24.579Z,101807.16
2022-10-17T14:52:27.680Z,101803.78
2022-10-17T14:54:55.700Z,101813.69
2022-10-17T14:57:27.617Z,101817.13
2022-10-17T14:59:57.839Z,101819.25
2022-10-17T15:02:26.090Z,101833.72
2022-10-17T15:04:54.797Z,101825.28
2022-10-17T15:07:23.683Z,101829.81
2022-10-17T15:09:53.221Z,101833.94
2022-10-17T15:12:23.000Z,101834.75
2022-10-17T15:14:51.743Z,101830.41
2022-10-17T15:17:22.454Z,101832.44
2022-10-17T15:19:50.785Z,101841.84
2022-10-17T15:22:19.278Z,101852.75
2022-10-17T15:24:47.395Z,101844.13
2022-10-17T15:27:16.918Z,101851.59
2022-10-17T15:29:44.808Z,101849.31
2022-10-17T15:32:12.983Z,101844.00
2022-10-17T15:34:42.639Z,101850.72
2022-10-17T15:37:17.786Z,101857.50
2022-10-17T15:39:48.065Z,101855.78
2022-10-17T15:42:15.931Z,101854.34
2022-10-17T15:44:44.619Z,101851.06
2022-10-17T15:47:21.198Z,101857.22
2022-10-17T15:49:50.517Z,101866.19
2022-10-17T15:52:18.942Z,101868.06
2022-10-17T15:54:47.080Z,101864.78
2022-10-17T15:57:18.586Z,101870.63
2022-10-17T15:59:47.262Z,101866.47
2022-10-17T16:02:15.913Z,101865.47
2022-10-17T16:04:44.164Z,101876.88
2022-10-17T16:07:13.423Z,101877.47
2022-10-17T16:09:41.353Z,101877.75
2022-10-17T16:12:14.385Z,101879.44
2022-10-17T16:14:42.378Z,101877.13
2022-10-17T16:17:11.980Z,101870.09
2022-10-17T16:19:39.857Z,101882.06
2022-10-17T16:22:08.202Z,101886.38
2022-10-17T16:24:37.529Z,101880.63
2022-10-17T16:27:05.529Z,101876.16
2022-10-17T16:29:33.422Z,101879.88
2022-10-17T16:32:01.348Z,101885.22
2022-10-17T16:34:30.730Z,101878.16
2022-10-17T16:36:58.601Z,101882.19
2022-10-17T16:42:00.672Z,101897.75
2022-10-17T16:44:28.612Z,101899.94
2022-10-17T16:46:56.885Z,101903.78
2022-10-17T16:49:24.800Z,101905.09
2022-10-17T16:51:52.685Z,101911.25
2022-10-17T16:54:20.709Z,101906.25
2022-10-17T16:56:49.909Z,101914.88
2022-10-17T16:59:19.275Z,101915.16
2022-10-17T17:01:47.149Z,101920.50
2022-10-17T17:04:15.390Z,101921.63
2022-10-17T17:09:16.302Z,101925.69
2022-10-17T17:11:44.238Z,101933.75
2022-10-17T17:14:12.594Z,101926.97
2022-10-17T17:16:43.354Z,101933.88
2022-10-17T17:19:13.259Z,101929.41
2022-10-17T17:21:43.151Z,101933.00
2022-10-17T17:24:11.037Z,101932.88
2022-10-17T17:26:39.145Z,101939.50
2022-10-17T17:29:07.154Z,101936.47
2022-10-17T17:31:36.101Z,101940.19
2022-10-17T17:34:05.794Z,101947.41
2022-10-17T17:36:36.405Z,101940.38
2022-10-17T17:39:06.384Z,101947.41
2022-10-17T17:41:34.997Z,101954.31
2022-10-17T17:44:03.454Z,101957.34
2022-10-17T17:46:31.587Z,101956.88
2022-10-17T17:48:59.773Z,101953.16
2022-10-17T17:51:29.680Z,101959.09
2022-10-17T17:53:57.820Z,101964.81
2022-10-17T17:56:27.970Z,101950.84
2022-10-17T17:58:57.291Z,101965.69
2022-10-17T18:01:26.517Z,101966.16
2022-10-17T18:03:55.491Z,101962.13
2022-10-17T18:06:23.956Z,101972.28
2022-10-17T18:08:54.694Z,101971.75
2022-10-17T18:11:22.841Z,101973.50
2022-10-17T18:13:55.083Z,101977.75
2022-10-17T18:16:22.994Z,101985.22
2022-10-17T18:18:50.927Z,101975.22
2022-10-17T18:21:19.058Z,101984.72
2022-10-17T18:23:48.681Z,101990.75
2022-10-17T18:26:18.281Z,101998.84
2022-10-17T18:28:46.352Z,102007.06
2022-10-17T18:31:18.904Z,102009.03
2022-10-17T18:33:47.128Z,102014.75
2022-10-17T18:36:16.103Z,102005.41
2022-10-17T18:38:44.163Z,102013.88
2022-10-17T18:41:15.135Z,102021.75
2022-10-17T18:43:45.704Z,102020.25
2022-10-17T18:46:15.232Z,102012.91
2022-10-17T18:48:45.408Z,102011.88
2022-10-17T18:51:14.014Z,102012.56
2022-10-17T18:53:42.695Z,102017.84
2022-10-17T18:56:11.006Z,102009.16
2022-10-17T18:58:39.302Z,102014.16
2022-10-17T19:01:09.986Z,102012.28
2022-10-17T19:03:38.266Z,102010.84
2022-10-17T19:06:08.280Z,102013.41
2022-10-17T19:08:36.906Z,102016.28
2022-10-17T19:11:06.780Z,102020.03
2022-10-17T19:13:34.802Z,102022.41
2022-10-17T19:16:06.759Z,102021.03
2022-10-17T19:18:36.581Z,102033.66
2022-10-17T19:21:05.508Z,102027.88
2022-10-17T19:23:35.500Z,102037.03
2022-10-17T19:26:04.393Z,102045.50
2022-10-17T19:28:32.939Z,102041.63
2022-10-17T19:31:01.044Z,102043.38
2022-10-17T19:36:05.431Z,102047.91
2022-10-17T19:38:33.675Z,102057.25
2022-10-17T19:41:01.639Z,102061.50
2022-10-17T19:43:29.709Z,102063.38
2022-10-17T19:45:58.473Z,102071.81
2022-10-17T19:48:26.970Z,102073.94
2022-10-17T19:50:55.280Z,102079.53
2022-10-17T19:53:27.861Z,102081.78
2022-10-17T19:55:55.849Z,102074.84
2022-10-17T19:58:23.765Z,102089.75
2022-10-17T20:00:54.422Z,102100.69
2022-10-17T20:03:22.703Z,102099.81
2022-10-17T20:05:50.823Z,102092.59
2022-10-17T20:08:19.230Z,102087.91
2022-10-17T20:10:48.841Z,102092.50
2022-10-17T20:13:16.877Z,102096.47
2022-10-17T20:15:54.990Z,102107.00
2022-10-17T20:18:23.065Z,102104.66
2022-10-17T20:20:51.249Z,102112.72
2022-10-17T20:23:19.270Z,102110.97
2022-10-17T20:25:52.908Z,102118.28
2022-10-17T20:28:24.818Z,102116.22
2022-10-17T20:30:52.942Z,102120.78
2022-10-17T20:33:20.863Z,102127.75
2022-10-17T20:35:48.770Z,102131.94
2022-10-17T20:38:17.231Z,102136.91
2022-10-17T20:40:45.222Z,102149.69
2022-10-17T20:43:14.846Z,102152.56
2022-10-17T20:45:51.230Z,102150.94
2022-10-17T20:48:19.922Z,102156.16
2022-10-17T20:50:47.785Z,102163.97
2022-10-17T20:53:36.040Z,102172.03
2022-10-17T20:56:07.200Z,102171.16
2022-10-17T20:58:37.016Z,102169.16
2022-10-17T21:01:08.774Z,102170.47
2022-10-17T21:03:39.859Z,102180.28
2022-10-17T21:06:10.886Z,102177.81
2022-10-17T21:08:38.847Z,102185.34
2022-10-17T21:11:11.286Z,102188.81
2022-10-17T21:13:40.959Z,102190.09
2022-10-17T21:16:10.546Z,102189.09
2022-10-17T21:18:38.749Z,102186.47
2022-10-17T21:21:11.917Z,102181.41
2022-10-17T21:23:40.226Z,102178.69
2022-10-17T21:26:09.756Z,102175.66
2022-10-17T21:28:38.110Z,102185.53
2022-10-17T21:31:12.854Z,102180.53
2022-10-17T21:33:41.478Z,102186.16
2022-10-17T21:36:10.114Z,102192.09
2022-10-17T21:38:38.677Z,102205.50
2022-10-17T21:41:07.822Z,102200.13
2022-10-17T21:43:36.113Z,102195.53
2022-10-17T21:46:04.851Z,102189.69
2022-10-17T21:48:34.674Z,102184.25
2022-10-17T21:51:04.265Z,102195.06
2022-10-17T21:53:32.230Z,102188.59
2022-10-17T21:56:01.637Z,102188.72
2022-10-17T21:58:29.893Z,102195.59
2022-10-17T22:01:05.394Z,102182.78
2022-10-17T22:03:35.319Z,102186.47
2022-10-17T22:06:18.400Z,102181.03
2022-10-17T22:08:51.634Z,102195.09
2022-10-17T22:11:21.179Z,102203.59
2022-10-17T22:13:49.172Z,102209.59
2022-10-17T22:16:17.753Z,102207.75
2022-10-17T22:18:47.092Z,102212.22
2022-10-17T22:21:16.442Z,102203.75
2022-10-17T22:23:56.070Z,102208.00
2022-10-17T22:26:23.997Z,102199.31
2022-10-17T22:28:51.918Z,102201.66
2022-10-17T22:31:20.478Z,102196.69
2022-10-17T22:33:49.818Z,102204.31
2022-10-17T22:36:17.722Z,102204.78
2022-10-17T22:38:45.630Z,102208.78
2022-10-17T22:41:13.517Z,102208.00
2022-10-17T22:43:41.411Z,102207.75
2022-10-17T22:46:10.409Z,102204.94
2022-10-17T22:48:38.327Z,102205.13
2022-10-17T22:51:07.769Z,102206.53
2022-10-17T22:53:37.353Z,102208.88
2022-10-17T22:56:07.379Z,102209.13
2022-10-17T22:58:36.185Z,102210.63
2022-10-17T23:01:04.890Z,102211.50
2022-10-17T23:03:33.477Z,102203.66
2022-10-17T23:06:01.562Z,102207.13
2022-10-17T23:08:30.911Z,102208.88
2022-10-17T23:10:59.136Z,102207.03
2022-10-17T23:13:27.057Z,102206.50
2022-10-17T23:15:57.417Z,102197.09
2022-10-17T23:18:26.240Z,102211.13
2022-10-17T23:20:54.766Z,102215.47
2022-10-17T23:23:23.103Z,102212.47
2022-10-17T23:25:52.406Z,102208.16
2022-10-17T23:28:20.270Z,102212.09
2022-10-17T23:30:48.213Z,102217.44
2022-10-17T23:33:16.126Z,102223.78
2022-10-17T23:35:44.048Z,102223.25
2022-10-17T23:38:11.913Z,102220.91
2022-10-17T23:40:39.807Z,102217.94
2022-10-17T23:43:09.270Z,102227.63
2022-10-17T23:45:37.389Z,102224.88
2022-10-17T23:48:05.951Z,102220.31
2022-10-17T23:50:33.859Z,102222.53
2022-10-17T23:53:01.807Z,102213.00
2022-10-17T23:55:30.309Z,102222.88
2022-10-17T23:57:58.200Z,102225.84
